Latest Coastal Weather Observations for Jervis Bay Airfield

IDN60701

Issued at 4:22 pm EDT Thursday 25 February 2021 (issued every 10 minutes, with the page automatically refreshed every 10 minutes)

About coastal observations | Map of coastal stations | Coastal observations for NSW | Marine services | Other Formats
Station Details ID: 068264 Name: JERVIS BAY AIRFIELD AWS Lat: -35.14 Lon: 150.70 Height: 57.18 m
Data from the previous 72 hours. | See also: Recent months at Jervis Bay Airfield
Date/Time
EDT
Wind Sea
Height
m
Swell Vis
km
Cloud Weather Temp
°C
Press
MSL
hPa
Rain since
9am
mm
Dir  Spd
kts
Gust
kts
Height
m
Period
s
Dir
25/04:00pm NNE 13 18 - - - - 10 - - 24.7 1006.8 0.2
25/03:30pm NNE 10 14 - - - - 10 - - 24.5 1007.4 0.2
25/03:00pm NNE 11 15 - - - - 10 - - 23.1 1007.8 0.2
25/02:30pm NNE 12 17 - - - - 10 - - 22.0 1008.2 0.2
25/02:00pm NNE 10 15 - - - - 10 Partly cloudy - 22.3 1008.5 0.2
25/01:30pm N 6 11 - - - - 10 Partly cloudy - 20.8 1009.6 0.2
25/01:00pm N 8 11 - - - - 10 Partly cloudy - 19.0 1010.3 0.2
25/12:30pm NNE 7 9 - - - - 10 - - 19.4 1010.8 0.2
25/12:00pm N 5 8 - - - - 10 Cloudy Rain 19.5 1011.4 0.2
25/11:30am W 4 6 - - - - 10 Partly cloudy - 19.3 1011.0 0.0
25/11:00am NW 5 6 - - - - 10 - - 19.0 1011.3 0.0
25/10:30am NW 4 6 - - - - 10 - - 18.9 1011.3 0.0
25/10:00am WNW 5 7 - - - - 10 Partly cloudy - 19.0 1011.1 0.0
25/09:30am WNW 4 5 - - - - 10 - - 19.7 1011.2 0.0
25/09:00am W 5 5 - - - - 10 - - 19.2 1011.0 7.8
25/08:30am WNW 5 6 - - - - 10 - - 18.6 1010.9 7.8
25/08:00am W 4 6 - - - - - - - 17.9 1010.8 7.8
25/07:30am S 3 4 - - - - - - - 17.0 1010.6 7.8
25/07:00am SSW 5 6 - - - - - - - 16.3 1010.8 7.8
25/06:30am S 4 5 - - - - - - - 15.8 1010.7 7.8
25/06:00am SSE 5 5 - - - - - - - 16.4 1010.7 7.8
25/05:30am S 5 6 - - - - - - - 16.2 1010.7 7.8
25/05:00am S 7 7 - - - - - - - 16.1 1010.7 7.8
25/04:30am S 5 7 - - - - - - - 15.9 1010.9 7.8
25/04:00am S 5 6 - - - - - - - 15.2 1011.1 7.8
25/03:30am SSW 3 5 - - - - - - - 15.1 1011.7 7.8
25/03:00am SSW 3 5 - - - - - - - 15.4 1011.7 7.8
25/02:30am WSW 4 5 - - - - - Partly cloudy - 15.7 1012.1 7.8
25/02:00am CALM 0 0 - - - - - Partly cloudy - 15.9 1012.9 7.8
25/01:30am SW 2 4 - - - - - Partly cloudy - 15.8 1013.4 7.8
25/01:00am W 4 5 - - - - - Partly cloudy - 16.1 1014.0 7.8
25/12:30am CALM 0 0 - - - - 10 Partly cloudy - 16.2 1014.5 7.8
25/12:00am W 3 4 - - - - 10 Cloudy - 16.1 1014.6 7.8
 
Date/Time
EDT
Wind Sea
Height
m
Swell Vis
km
Cloud Weather Temp
°C
Press
MSL
hPa
Rain since
9am
mm
Dir  Spd
kts
Gust
kts
Height
m
Period
s
Dir
24/11:30pm WSW 4 6 - - - - 10 Partly cloudy - 15.9 1014.7 7.8
24/11:00pm WSW 6 7 - - - - 10 Partly cloudy - 15.8 1015.1 7.8
24/10:30pm WSW 5 6 - - - - 10 Partly cloudy - 16.2 1015.0 7.8
24/10:00pm SW 8 11 - - - - 10 Partly cloudy - 16.6 1015.1 7.8
24/09:30pm SW 9 12 - - - - 10 Partly cloudy - 16.8 1015.4 7.8
24/09:26pm SW 9 12 - - - - 10 Partly cloudy - 16.7 1015.4 7.8
24/09:00pm SW 10 15 - - - - 10 Partly cloudy - 16.7 1015.5 7.8
24/08:43pm SW 10 13 - - - - 10 Partly cloudy - 16.7 1015.6 7.8
24/08:30pm SW 10 15 - - - - 10 Partly cloudy - 16.7 1015.6 7.8
24/08:28pm SW 10 15 - - - - 10 Partly cloudy - 16.7 1015.6 7.8
24/08:00pm WSW 10 13 - - - - 10 Partly cloudy - 16.8 1015.5 7.8
24/07:30pm SSW 12 16 - - - - 10 Cloudy - 17.0 1015.4 7.8
24/07:22pm SW 12 17 - - - - 10 Cloudy - 17.0 1015.4 7.8
24/07:00pm SW 12 17 - - - - 3 Cloudy - 16.9 1015.5 7.6
24/06:44pm SW 11 17 - - - - 7 Cloudy - 17.2 1015.6 7.2
24/06:30pm SW 11 17 - - - - 10 Cloudy - 17.4 1015.7 7.2
24/06:00pm SW 12 16 - - - - 10 Cloudy Showers 17.3 1015.6 7.2
24/05:36pm SW 7 13 - - - - 10 Cloudy - 17.2 1016.1 7.2
24/05:30pm SW 8 13 - - - - 10 Cloudy - 17.1 1016.1 7.2
24/05:10pm SW 11 16 - - - - 7 Cloudy - 17.1 1016.2 6.8
24/05:01pm SW 11 16 - - - - 8 Partly cloudy - 17.2 1016.2 6.6
24/05:00pm SW 11 15 - - - - 8 Cloudy - 17.2 1016.2 6.6
24/04:30pm SW 12 17 - - - - 3 Partly cloudy - 17.4 1016.4 6.0
24/04:00pm SW 10 16 - - - - 5 Cloudy - 17.1 1016.5 5.4
24/03:30pm SW 11 17 - - - - 2 Partly cloudy - 16.8 1017.0 4.8
24/03:18pm SSW 12 17 - - - - 7 Partly cloudy - 17.6 1017.1 4.4
24/03:00pm SSW 12 20 - - - - 10 Cloudy Showers 17.3 1017.3 4.4
24/02:53pm SSW 12 17 - - - - 10 Cloudy - 17.2 1017.5 4.4
24/02:30pm SSW 13 18 - - - - 5 Partly cloudy - 17.0 1017.9 4.4
24/02:27pm SSW 13 18 - - - - 7 Partly cloudy - 17.0 1018.0 4.2
24/02:00pm SSW 15 20 - - - - 10 Partly cloudy - 18.3 1018.4 4.2
24/01:49pm SW 13 21 - - - - 10 Partly cloudy - 18.0 1018.5 4.2
24/01:30pm SSW 16 22 - - - - 10 Partly cloudy - 18.8 1018.5 4.2
24/01:00pm SSW 14 21 - - - - 10 Partly cloudy - 18.9 1018.6 4.2
24/12:30pm SSW 12 19 - - - - 10 Partly cloudy - 18.7 1019.2 4.2
24/12:00pm SW 12 17 - - - - 10 Cloudy - 18.3 1019.5 4.2
24/11:30am SSW 14 19 - - - - 10 Partly cloudy - 17.4 1019.3 4.2
24/11:09am SSW 13 19 - - - - 10 Partly cloudy - 17.2 1019.7 4.2
24/11:00am SSW 14 19 - - - - 8 Partly cloudy - 16.5 1019.8 4.2
24/10:50am SSW 12 17 - - - - 7 Partly cloudy - 16.7 1019.9 4.2
24/10:30am SW 12 17 - - - - 10 Partly cloudy - 16.5 1019.9 4.2
24/10:00am SW 10 14 - - - - 10 Partly cloudy - 16.4 1019.8 4.2
24/09:50am SW 9 13 - - - - 10 Partly cloudy - 15.7 1019.7 4.2
24/09:30am SW 9 13 - - - - 4 Cloudy - 15.1 1019.8 4.0
24/09:13am WSW 6 10 - - - - 6 Cloudy - 14.9 1019.7 1.0
24/09:00am WSW 10 13 - - - - 10 Mostly cloudy Showers 15.2 1019.4 5.2
24/08:43am SW 9 12 - - - - 10 Partly cloudy - 15.2 1019.1 5.2
24/08:30am WSW 8 11 - - - - 5 Cloudy - 15.1 1019.1 5.2
24/08:00am SSW 6 10 - - - - 4 Cloudy - 14.8 1019.1 4.0
24/07:53am S 8 14 - - - - 7 Cloudy - 15.4 1019.1 2.8
24/07:30am SW 10 16 - - - - 10 Partly cloudy - 16.3 1018.4 1.8
24/07:00am SW 11 17 - - - - 10 Partly cloudy - 16.0 1018.1 1.8
24/06:30am SW 10 16 - - - - 10 Cloudy - 15.4 1017.9 1.8
24/06:00am SW 9 14 - - - - 10 Mostly cloudy Showers 15.3 1017.4 1.4
24/05:30am SW 16 21 - - - - 10 Partly cloudy - 14.8 1017.5 0.4
24/05:00am SW 10 16 - - - - 10 Partly cloudy - 15.8 1017.3 0.2
24/04:30am SW 10 15 - - - - 10 Partly cloudy - 16.0 1017.0 0.2
24/04:00am SW 10 14 - - - - 10 Partly cloudy - 17.2 1017.3 0.2
24/03:30am S 7 11 - - - - 10 Partly cloudy - 18.1 1017.4 0.2
24/03:00am S 5 7 - - - - 10 Cloudy Showers 17.7 1017.5 0.2
24/02:30am S 10 13 - - - - 10 Partly cloudy - 18.3 1017.5 0.0
24/02:00am S 11 14 - - - - 10 Partly cloudy - 18.2 1017.7 0.0
24/01:30am SSE 12 17 - - - - 10 Partly cloudy - 18.3 1017.9 0.0
24/01:00am SSE 9 12 - - - - 10 Partly cloudy - 18.2 1018.2 0.0
24/12:30am SSE 14 18 - - - - 10 Partly cloudy - 18.3 1018.4 0.0
24/12:00am SSE 13 18 - - - - 10 Mostly cloudy Showers 18.3 1018.5 0.0
 
Date/Time
EDT
Wind Sea
Height
m
Swell Vis
km
Cloud Weather Temp
°C
Press
MSL
hPa
Rain since
9am
mm
Dir  Spd
kts
Gust
kts
Height
m
Period
s
Dir
23/11:30pm SSE 12 16 - - - - 10 Partly cloudy - 18.3 1018.4 0.0
23/11:00pm SSE 14 20 - - - - 10 Partly cloudy - 18.3 1018.4 0.0
23/10:30pm SSE 14 21 - - - - 10 Partly cloudy - 18.3 1018.3 0.0
23/10:00pm SSE 14 19 - - - - 10 Partly cloudy - 17.9 1018.0 0.0
23/09:30pm SSE 18 26 - - - - 10 Partly cloudy - 18.0 1017.7 0.0
23/09:00pm SSE 19 25 - - - - 10 Partly cloudy - 18.1 1017.4 0.0
23/08:30pm SSE 20 27 - - - - 10 Cloudy - 18.1 1016.8 0.0
23/08:13pm SSE 18 28 - - - - 10 Partly cloudy - 18.1 1016.6 0.0
23/08:00pm SSE 20 28 - - - - 10 Partly cloudy - 18.0 1016.5 0.0
23/07:30pm SSE 18 25 - - - - 10 - - 18.2 1015.9 0.0
23/07:00pm SSE 20 30 - - - - 10 - - 18.4 1015.5 0.0
23/06:46pm SSE 19 31 - - - - 10 - - 18.9 1015.3 0.0
23/06:30pm SSE 21 27 - - - - 10 - - 19.1 1015.1 0.0
23/06:02pm SSE 20 30 - - - - 10 - - 19.5 1015.1 0.0
23/06:00pm SSE 22 30 - - - - 10 - - 19.2 1015.1 0.0
23/05:38pm S 19 29 - - - - 10 - - 19.7 1014.9 0.0
23/05:30pm S 21 27 - - - - 10 - - 20.0 1014.9 0.0
23/05:00pm S 17 26 - - - - 10 - - 20.4 1014.8 0.0
23/04:30pm S 17 23 - - - - 10 - - 20.3 1014.7 0.0
23/04:00pm S 15 23 - - - - 10 Partly cloudy - 20.6 1014.7 0.0
23/03:30pm S 17 23 - - - - 10 Partly cloudy - 20.9 1014.5 0.0
23/03:00pm SSW 14 21 - - - - 10 Mostly clear - 20.7 1014.7 0.0
23/02:30pm SSW 16 22 - - - - 10 Partly cloudy - 20.0 1014.7 0.0
23/02:00pm S 17 21 - - - - 10 Partly cloudy - 19.7 1014.6 0.0
23/01:30pm SSW 15 22 - - - - 10 Partly cloudy - 19.6 1014.6 0.0
23/01:00pm SSW 15 20 - - - - 10 Cloudy - 19.4 1014.5 0.0
23/12:30pm SSW 14 19 - - - - 10 Cloudy - 19.4 1014.6 0.0
23/12:00pm SSW 16 23 - - - - 10 Mostly cloudy - 18.6 1014.5 0.0
23/11:30am SSW 17 22 - - - - 10 Partly cloudy - 19.2 1014.5 0.0
23/11:00am SSW 15 23 - - - - 10 Cloudy - 18.4 1014.4 0.0
23/10:30am SSW 14 20 - - - - 10 Cloudy - 17.8 1014.1 0.0
23/10:00am SSW 16 21 - - - - 10 Partly cloudy - 17.6 1013.8 0.0
23/09:30am S 16 23 - - - - 10 Partly cloudy - 16.7 1013.6 0.0
23/09:00am S 13 17 - - - - 10 Cloudy Recent precip. 17.3 1013.3 5.2
23/08:30am S 14 21 - - - - 10 Partly cloudy - 16.6 1012.9 5.2
23/08:05am S 13 17 - - - - 10 Partly cloudy - 16.2 1013.0 5.2
23/08:00am S 13 18 - - - - 10 Partly cloudy - 16.2 1012.9 5.2
23/07:48am S 14 19 - - - - 7 Partly cloudy - 16.0 1012.8 5.2
23/07:30am S 12 18 - - - - 10 Partly cloudy - 16.5 1012.6 5.0
23/07:06am SSW 9 14 - - - - 10 Partly cloudy - 16.2 1012.2 5.0
23/07:00am S 10 17 - - - - 8 Partly cloudy - 16.1 1012.1 4.8
23/06:56am S 11 19 - - - - 7 Partly cloudy - 16.0 1012.0 4.8
23/06:30am S 11 17 - - - - 10 Partly cloudy - 17.5 1011.5 4.6
23/06:00am S 12 18 - - - - 10 Cloudy Showers 17.6 1011.1 4.6
23/05:30am SSW 14 21 - - - - 10 Partly cloudy - 17.5 1010.8 4.6
23/05:00am S 14 19 - - - - 10 Partly cloudy - 18.3 1010.3 4.6
23/04:30am S 14 18 - - - - 10 Cloudy - 18.3 1010.0 4.6
23/04:00am S 15 20 - - - - 10 Partly cloudy - 18.4 1010.0 4.6
23/03:30am S 14 20 - - - - 10 Cloudy - 18.5 1010.0 4.6
23/03:00am S 15 23 - - - - 10 Cloudy - 18.6 1009.9 4.6
23/02:30am S 15 21 - - - - 10 Partly cloudy - 18.6 1009.9 4.6
23/02:00am S 14 23 - - - - 10 Partly cloudy - 18.9 1009.9 4.6
23/01:30am S 13 18 - - - - 10 Partly cloudy - 19.0 1010.3 4.6
23/01:00am S 13 22 - - - - 10 Partly cloudy - 19.1 1010.4 4.6
23/12:30am S 16 21 - - - - 10 Cloudy - 19.3 1010.5 4.6
23/12:00am S 14 19 - - - - 10 Cloudy - 19.3 1010.5 4.6
 
Date/Time
EDT
Wind Sea
Height
m
Swell Vis
km
Cloud Weather Temp
°C
Press
MSL
hPa
Rain since
9am
mm
Dir  Spd
kts
Gust
kts
Height
m
Period
s
Dir
22/11:30pm S 13 18 - - - - 10 Cloudy - 19.5 1010.3 4.6
22/11:00pm S 14 18 - - - - 10 Partly cloudy - 19.5 1010.6 4.6
22/10:30pm S 14 20 - - - - 10 Cloudy - 19.5 1010.6 4.6
22/10:00pm S 15 20 - - - - 10 Cloudy - 19.7 1010.6 4.6
22/09:30pm S 17 21 - - - - 10 Cloudy - 19.5 1010.5 4.6
22/09:00pm S 15 21 - - - - 10 Cloudy - 19.2 1010.2 4.6
22/08:30pm S 15 21 - - - - 10 Cloudy - 19.0 1009.7 4.6
22/08:00pm S 16 22 - - - - 10 Partly cloudy - 18.8 1009.3 4.6
22/07:30pm S 16 23 - - - - 10 Partly cloudy - 18.6 1008.8 4.6
22/07:00pm S 17 23 - - - - 10 Partly cloudy - 18.3 1008.3 4.6
22/06:50pm S 17 24 - - - - 10 Partly cloudy - 18.2 1008.1 4.6
22/06:38pm S 15 25 - - - - 7 Partly cloudy - 17.9 1008.1 4.6
22/06:30pm S 15 23 - - - - 2 Partly cloudy - 17.7 1008.1 4.6
22/06:00pm SSW 14 21 - - - - 2 Cloudy Rain 17.8 1007.9 4.0
22/05:30pm SSW 13 25 - - - - 2 Cloudy - 18.2 1007.5 3.6
22/05:00pm SSW 13 17 - - - - 2 Cloudy - 18.4 1007.3 2.8
22/04:30pm SSW 13 20 - - - - 3 Cloudy - 18.7 1007.1 2.4

Other formats

Comma delimited format used in spreadsheet applications
http://www.bom.gov.au/fwo/IDN60701/IDN60701.94751.axf

JavaScript Object Notation format (JSON) in row-major order
http://www.bom.gov.au/fwo/IDN60701/IDN60701.94751.json

Data quality

Most of these data are generated automatically and are frequently updated. Quality checks on data are not normally performed. It is possible for incorrect values to appear. Refer to information at About Latest Weather Observations and please check the disclaimer before using these data.